Terminal Aerodrome Forecast
Issued by NWS

Home | Current Version | Previous Version | Text Only | Print | Product List | Glossary On
Versions: 1 2 3 4 5 6 7 8 9 10 11 12 13 14 15 16
000
FTUS45 KGGW 211129
TAFGDV
TAF
KGDV 211129Z 2112/2212 25009KT P6SM SCT170
     FM211300 30011KT P6SM FEW160
     FM211500 31018G27KT P6SM FEW140
     FM220200 31011KT P6SM SKC=

USA.gov is the U.S. government's official web portal to all federal, state and local government web resources and services.